Time;durP1;ratioP1;P1;durP2;ratioP2;P2;SDS_P1;SDS_P2;PMS_P1;PMS_P2;Temp;Humidity;BMP_temperature;BMP_pressure;BME280_temperature;BME280_humidity;BME280_pressure;Samples;Min_cycle;Max_cycle;Signal;HPM_P1;HPM_P2
2023/04/25 00:02:12;;;;;;;1.97;1.87;;;16.70;62.80;17.60;100175.00;;;;5028202;28;20190;-54
2023/04/25 00:04:37;;;;;;;2.10;2.00;;;16.70;62.80;17.60;100177.00;;;;5028059;28;20238;-54
2023/04/25 00:07:03;;;;;;;1.90;1.80;;;16.70;62.80;17.60;100185.00;;;;5028163;28;20564;-55
2023/04/25 00:09:29;;;;;;;2.00;1.90;;;16.70;62.80;17.60;100180.00;;;;5028396;28;20222;-55
2023/04/25 00:11:55;;;;;;;2.53;2.00;;;16.70;62.80;17.60;100181.00;;;;5020204;28;20175;-54
2023/04/25 00:14:21;;;;;;;1.93;1.83;;;16.60;63.50;17.60;100180.00;;;;5021363;28;20176;-54
2023/04/25 00:16:48;;;;;;;2.17;1.97;;;16.60;62.70;17.60;100174.00;;;;5026891;28;20183;-54
2023/04/25 00:19:13;;;;;;;1.90;1.80;;;16.60;62.70;17.60;100181.00;;;;5028466;28;20521;-55
2023/04/25 00:21:40;;;;;;;2.10;1.90;;;16.60;62.70;17.50;100186.00;;;;5028397;28;20174;-54
2023/04/25 00:24:07;;;;;;;2.00;1.80;;;16.60;62.70;17.50;100168.00;;;;5028269;28;20178;-54
2023/04/25 00:26:35;;;;;;;2.00;1.90;;;16.60;62.80;17.50;100191.00;;;;5027613;28;20201;-54
2023/04/25 00:29:00;;;;;;;1.93;1.83;;;16.60;62.70;17.50;100182.00;;;;5035131;28;20195;-54
2023/04/25 00:31:26;;;;;;;2.03;1.83;;;16.50;62.60;17.50;100191.00;;;;5034528;28;20263;-54
2023/04/25 00:33:53;;;;;;;1.80;1.70;;;16.60;62.70;17.50;100181.00;;;;5030179;28;20193;-54
2023/04/25 00:36:18;;;;;;;2.20;2.00;;;16.50;62.70;17.50;100185.00;;;;5030315;28;20265;-54
2023/04/25 00:38:45;;;;;;;1.90;1.80;;;16.50;62.60;17.50;100180.00;;;;5029104;28;20254;-54
2023/04/25 00:41:11;;;;;;;2.07;1.90;;;16.50;62.70;17.50;100182.00;;;;5033632;28;20189;-55
2023/04/25 00:43:37;;;;;;;1.90;1.80;;;16.50;62.70;17.50;100182.00;;;;5035128;28;20189;-54
2023/04/25 00:46:03;;;;;;;2.13;1.93;;;16.50;62.70;17.50;100178.00;;;;5030862;28;20581;-54
2023/04/25 00:48:28;;;;;;;1.80;1.70;;;16.50;62.70;17.50;100186.00;;;;5032123;28;20218;-54
2023/04/25 00:50:57;;;;;;;2.07;1.90;;;16.50;62.70;17.40;100179.00;;;;5032277;28;20172;-54
2023/04/25 00:53:24;;;;;;;2.07;1.93;;;16.50;62.70;17.40;100184.00;;;;5032389;28;20236;-54
2023/04/25 00:55:51;;;;;;;2.10;1.90;;;16.50;62.70;17.40;100188.00;;;;5032624;28;20175;-54
2023/04/25 00:58:20;;;;;;;2.33;2.10;;;16.50;62.70;17.40;100181.00;;;;5033578;28;20510;-54
2023/04/25 01:00:47;;;;;;;2.10;1.90;;;16.40;62.60;17.40;100158.00;;;;5034607;28;20187;-54
2023/04/25 01:03:17;;;;;;;2.30;2.10;;;16.40;62.60;17.40;100181.00;;;;5031135;28;20277;-54
2023/04/25 01:05:42;;;;;;;2.03;1.83;;;16.40;62.60;17.40;100177.00;;;;5023752;28;20615;-54
2023/04/25 01:08:09;;;;;;;1.90;1.80;;;16.40;62.60;17.40;100180.00;;;;5030451;28;20223;-54
2023/04/25 01:10:35;;;;;;;2.10;1.90;;;16.40;62.60;17.30;100173.00;;;;5023782;28;20195;-56
2023/04/25 01:13:01;;;;;;;2.10;1.90;;;16.40;62.60;17.30;100176.00;;;;5030103;28;20293;-54
2023/04/25 01:15:26;;;;;;;2.00;1.90;;;16.40;62.70;17.30;100172.00;;;;5031307;28;20183;-54
2023/04/25 01:17:52;;;;;;;1.93;1.70;;;16.40;62.60;17.30;100178.00;;;;5031199;28;20213;-54
2023/04/25 01:20:20;;;;;;;2.03;1.83;;;16.40;62.60;17.30;100178.00;;;;5031229;28;20187;-54
2023/04/25 01:22:46;;;;;;;2.10;1.90;;;16.40;62.60;17.30;100181.00;;;;5030031;28;20186;-55
2023/04/25 01:25:12;;;;;;;1.80;1.70;;;16.30;62.50;17.30;100163.00;;;;5030001;28;20206;-55
2023/04/25 01:27:37;;;;;;;2.07;1.87;;;16.30;62.50;17.30;100184.00;;;;5029891;28;20321;-56
2023/04/25 01:30:04;;;;;;;2.20;2.00;;;16.30;62.60;17.20;100178.00;;;;5031669;28;20175;-54
2023/04/25 01:32:37;;;;;;;2.00;1.90;;;16.30;62.60;17.20;100186.00;;;;5010507;28;20275;-54
2023/04/25 01:35:09;;;;;;;2.20;2.00;;;16.30;62.50;17.20;100167.00;;;;5023807;28;20186;-54
2023/04/25 01:37:42;;;;;;;2.10;1.90;;;16.30;62.50;17.20;100191.00;;;;5029685;28;20199;-55
2023/04/25 01:40:09;;;;;;;1.90;1.80;;;16.30;62.60;17.20;100179.00;;;;5029885;28;20194;-54
2023/04/25 01:42:36;;;;;;;2.30;2.10;;;16.20;62.50;17.20;100193.00;;;;5030847;28;20760;-54
2023/04/25 01:45:03;;;;;;;2.07;1.90;;;16.30;62.50;17.20;100184.00;;;;5029561;28;20350;-54
2023/04/25 01:47:28;;;;;;;2.07;1.90;;;16.30;62.50;17.10;100189.00;;;;5030848;28;20787;-55
2023/04/25 01:49:54;;;;;;;2.20;2.00;;;16.20;63.30;17.10;100190.00;;;;5031556;28;20171;-54
2023/04/25 01:52:20;;;;;;;1.90;1.80;;;16.30;62.60;17.10;100194.00;;;;5035955;28;20179;-54
2023/04/25 01:54:46;;;;;;;2.23;1.80;;;16.20;62.50;17.10;100185.00;;;;5037224;28;20178;-54
2023/04/25 01:57:12;;;;;;;2.43;2.00;;;16.20;62.40;17.10;100192.00;;;;5034048;28;20233;-55
2023/04/25 01:59:38;;;;;;;2.00;1.90;;;16.20;62.50;17.10;100186.00;;;;5031111;28;20190;-55
2023/04/25 02:02:04;;;;;;;2.10;2.00;;;16.20;62.50;17.10;100192.00;;;;5029363;28;20313;-54
2023/04/25 02:04:32;;;;;;;2.00;1.90;;;16.20;62.60;17.10;100203.00;;;;5030777;28;20216;-55
2023/04/25 02:06:58;;;;;;;2.20;2.00;;;16.20;62.70;17.10;100201.00;;;;5030911;28;20195;-54
2023/04/25 02:09:24;;;;;;;2.30;2.10;;;16.10;62.50;17.10;100204.00;;;;5030442;28;20245;-55
2023/04/25 02:11:49;;;;;;;2.33;2.13;;;16.10;62.50;17.00;100206.00;;;;5029208;28;20186;-55
2023/04/25 02:14:15;;;;;;;2.20;2.00;;;16.10;62.50;17.10;100214.00;;;;5024069;28;20187;-55
2023/04/25 02:16:43;;;;;;;2.40;2.20;;;16.10;62.50;17.00;100210.00;;;;5026983;28;20198;-54
2023/04/25 02:19:10;;;;;;;2.40;2.10;;;16.10;62.50;17.00;100215.00;;;;5023754;28;20680;-54
2023/04/25 02:21:35;;;;;;;1.90;1.80;;;16.10;62.50;17.00;100214.00;;;;5030357;28;20183;-54
2023/04/25 02:24:02;;;;;;;2.00;1.90;;;16.10;62.50;17.00;100216.00;;;;5030245;28;20189;-54
2023/04/25 02:26:27;;;;;;;2.20;2.00;;;16.10;62.50;17.00;100215.00;;;;5036952;28;20191;-61
2023/04/25 02:28:53;;;;;;;1.80;1.70;;;16.10;62.50;17.00;100215.00;;;;5035641;28;20209;-55
2023/04/25 02:31:19;;;;;;;2.27;2.07;;;16.00;62.40;17.00;100209.00;;;;5032038;28;20179;-54
2023/04/25 02:33:44;;;;;;;2.17;1.93;;;16.10;62.50;17.00;100205.00;;;;5032477;28;20179;-54
2023/04/25 02:36:10;;;;;;;2.00;1.90;;;16.00;62.40;17.00;100215.00;;;;5030745;28;20175;-54
2023/04/25 02:38:36;;;;;;;1.83;1.73;;;16.00;62.40;16.90;100200.00;;;;5026159;28;20293;-54
2023/04/25 02:41:02;;;;;;;2.03;1.90;;;16.00;62.40;17.00;100215.00;;;;5043796;28;20211;-55
2023/04/25 02:43:27;;;;;;;2.63;2.00;;;16.00;62.40;16.90;100208.00;;;;5029240;28;20221;-55
2023/04/25 02:45:53;;;;;;;2.30;2.00;;;16.00;62.50;16.90;100206.00;;;;5030076;28;20175;-56
2023/04/25 02:48:19;;;;;;;2.10;2.00;;;16.00;62.70;16.90;100206.00;;;;5029975;28;20218;-54
2023/04/25 02:50:45;;;;;;;2.07;1.90;;;16.00;62.60;16.90;100212.00;;;;5029956;28;20290;-54
2023/04/25 02:53:10;;;;;;;1.90;1.80;;;16.00;62.50;16.90;100204.00;;;;5029976;28;20167;-54
2023/04/25 02:55:36;;;;;;;2.20;2.00;;;16.00;62.60;16.90;100215.00;;;;5029570;28;20258;-54
2023/04/25 02:58:02;;;;;;;2.13;1.93;;;16.00;62.70;16.90;100208.00;;;;5027927;28;20199;-54
2023/04/25 03:00:28;;;;;;;2.10;2.00;;;16.00;62.70;16.90;100200.00;;;;5021657;28;20186;-53
2023/04/25 03:02:54;;;;;;;2.07;1.97;;;16.00;62.70;16.90;100199.00;;;;5026378;28;20191;-54
2023/04/25 03:05:19;;;;;;;2.27;2.07;;;16.00;62.70;16.80;100228.00;;;;5024554;28;20245;-54
2023/04/25 03:07:45;;;;;;;2.00;1.90;;;16.00;62.70;16.80;100204.00;;;;5028578;28;20226;-54
2023/04/25 03:10:11;;;;;;;2.10;1.90;;;15.90;62.60;16.80;100205.00;;;;5029501;28;20182;-54
2023/04/25 03:12:37;;;;;;;2.33;2.20;;;16.00;62.70;16.80;100210.00;;;;5029090;28;20175;-54
2023/04/25 03:15:03;;;;;;;2.23;2.03;;;16.00;62.70;16.80;100212.00;;;;5029020;28;20554;-54
2023/04/25 03:17:29;;;;;;;2.30;2.10;;;15.90;62.50;16.80;100212.00;;;;5029158;28;20191;-53
2023/04/25 03:19:55;;;;;;;1.90;1.80;;;15.90;62.50;16.80;100216.00;;;;5029455;28;20201;-54
2023/04/25 03:22:21;;;;;;;2.00;1.90;;;15.90;62.60;16.80;100213.00;;;;5029110;28;20179;-54
2023/04/25 03:24:47;;;;;;;1.90;1.80;;;15.90;62.60;16.80;100208.00;;;;5028792;28;20261;-54
2023/04/25 03:27:13;;;;;;;1.97;1.87;;;15.90;62.70;16.80;100207.00;;;;5028966;28;20213;-53
2023/04/25 03:29:38;;;;;;;2.87;2.10;;;15.90;62.90;16.80;100210.00;;;;5029179;28;20198;-54
2023/04/25 03:32:04;;;;;;;4.20;2.00;;;15.90;64.10;16.80;100211.00;;;;5028991;28;20209;-54
2023/04/25 03:34:30;;;;;;;2.20;2.00;;;15.90;63.20;16.80;100208.00;;;;5028782;28;20676;-54
2023/04/25 03:36:56;;;;;;;2.07;1.90;;;15.90;62.90;16.70;100216.00;;;;5028887;28;20253;-54
2023/04/25 03:39:21;;;;;;;5.63;2.17;;;15.90;62.80;16.70;100203.00;;;;5028488;28;20197;-54
2023/04/25 03:41:47;;;;;;;3.90;2.20;;;15.90;62.90;16.70;100212.00;;;;5028596;28;20175;-54
2023/04/25 03:44:13;;;;;;;2.97;2.00;;;15.90;63.10;16.70;100222.00;;;;5028600;28;20198;-54
2023/04/25 03:46:39;;;;;;;2.80;1.93;;;15.90;63.00;16.70;100217.00;;;;5029351;28;20186;-54
2023/04/25 03:49:05;;;;;;;3.73;2.20;;;15.80;62.90;16.70;100212.00;;;;5025367;28;20589;-54
2023/04/25 03:51:30;;;;;;;3.17;2.00;;;15.80;62.90;16.70;100221.00;;;;5026393;28;20198;-55
2023/04/25 03:53:56;;;;;;;2.87;2.10;;;15.80;62.90;16.70;100217.00;;;;5029443;28;20338;-56
2023/04/25 03:56:22;;;;;;;3.73;2.00;;;15.80;62.90;16.70;100214.00;;;;5030039;28;20178;-53
2023/04/25 03:58:48;;;;;;;2.80;2.30;;;15.80;62.90;16.60;100222.00;;;;5029684;28;20199;-54
2023/04/25 04:01:13;;;;;;;2.50;2.10;;;15.80;62.90;16.60;100225.00;;;;5030175;28;20198;-55
2023/04/25 04:03:39;;;;;;;2.57;1.90;;;15.80;62.80;16.60;100233.00;;;;5029718;28;20226;-54
2023/04/25 04:06:05;;;;;;;3.83;2.20;;;15.80;62.90;16.60;100221.00;;;;5030917;28;20179;-56
2023/04/25 04:08:32;;;;;;;3.00;2.10;;;15.80;62.80;16.60;100234.00;;;;5025391;28;20306;-54
2023/04/25 04:10:58;;;;;;;4.50;2.27;;;15.80;62.80;16.60;100233.00;;;;5032845;28;20325;-56
2023/04/25 04:13:26;;;;;;;3.57;2.07;;;15.70;62.70;16.60;100237.00;;;;5032159;28;20183;-54
2023/04/25 04:15:52;;;;;;;3.43;2.00;;;15.80;62.80;16.60;100231.00;;;;5031571;28;20643;-55
2023/04/25 04:18:18;;;;;;;5.03;2.13;;;15.80;62.90;16.60;100226.00;;;;5029394;28;20202;-56
2023/04/25 04:20:43;;;;;;;9.60;2.70;;;15.70;62.70;16.60;100242.00;;;;5032937;28;20676;-53
2023/04/25 04:23:09;;;;;;;21.03;4.50;;;15.80;62.90;16.60;100235.00;;;;5041784;28;20199;-54
2023/04/25 04:25:35;;;;;;;21.00;4.10;;;15.70;62.80;16.50;100241.00;;;;5027663;28;20187;-55
2023/04/25 04:28:01;;;;;;;17.00;3.80;;;15.70;62.80;16.50;100237.00;;;;5031254;28;20238;-56
2023/04/25 04:30:30;;;;;;;16.00;4.23;;;15.70;62.90;16.50;100244.00;;;;5023360;28;20266;-54
2023/04/25 04:32:56;;;;;;;21.80;4.50;;;15.70;63.10;16.50;100252.00;;;;5031652;28;20509;-55
2023/04/25 04:35:23;;;;;;;13.67;3.53;;;15.70;63.40;16.50;100247.00;;;;5024482;28;20266;-55
2023/04/25 04:37:49;;;;;;;16.03;3.80;;;15.70;63.50;16.50;100245.00;;;;5047765;28;20268;-55
2023/04/25 04:40:17;;;;;;;14.50;4.47;;;15.70;63.40;16.50;100194.00;;;;5034763;28;20225;-54
2023/04/25 04:42:45;;;;;;;15.23;4.37;;;15.70;63.40;16.50;100253.00;;;;5033485;28;20179;-54
2023/04/25 04:45:11;;;;;;;13.57;3.63;;;15.70;63.30;16.50;100241.00;;;;5032936;28;20203;-54
2023/04/25 04:47:37;;;;;;;10.97;3.80;;;15.70;63.40;16.50;100252.00;;;;5031050;28;20790;-55
2023/04/25 04:50:11;;;;;;;14.27;4.13;;;15.60;63.30;16.50;100259.00;;;;5033053;28;20167;-54
2023/04/25 04:52:38;;;;;;;12.30;3.87;;;15.60;63.30;16.50;100256.00;;;;5031826;28;20174;-54
2023/04/25 04:55:05;;;;;;;10.70;3.47;;;15.60;63.30;16.50;100273.00;;;;5032394;28;20730;-54
2023/04/25 04:57:32;;;;;;;11.20;3.90;;;15.60;63.20;16.50;100273.00;;;;5032242;28;20206;-54
2023/04/25 04:59:58;;;;;;;11.67;3.57;;;15.60;63.30;16.50;100281.00;;;;5032642;28;20186;-54
2023/04/25 05:02:24;;;;;;;13.80;3.77;;;15.60;63.10;16.40;100275.00;;;;5032655;28;20179;-54
2023/04/25 05:04:51;;;;;;;10.47;3.80;;;15.60;63.10;16.40;100273.00;;;;5030948;28;20175;-53
2023/04/25 05:07:17;;;;;;;8.10;3.50;;;15.60;63.10;16.50;100280.00;;;;5030297;28;20575;-54
2023/04/25 05:09:43;;;;;;;9.00;3.90;;;15.60;63.10;16.40;100279.00;;;;5032122;28;20189;-55
2023/04/25 05:12:08;;;;;;;7.57;3.03;;;15.60;63.10;16.40;100293.00;;;;5032320;28;20653;-55
2023/04/25 05:14:34;;;;;;;7.20;3.23;;;15.60;63.10;16.40;100295.00;;;;5030368;28;20182;-53
2023/04/25 05:17:00;;;;;;;9.60;3.60;;;15.60;63.10;16.40;100288.00;;;;5024574;28;20174;-54
2023/04/25 05:19:26;;;;;;;6.83;3.30;;;15.50;63.00;16.40;100297.00;;;;5032421;28;20568;-55
2023/04/25 05:21:52;;;;;;;7.97;3.13;;;15.50;63.00;16.40;100302.00;;;;5031749;28;20202;-55
2023/04/25 05:24:18;;;;;;;8.17;3.10;;;15.60;63.00;16.40;100303.00;;;;5031316;28;20167;-55
2023/04/25 05:26:43;;;;;;;8.70;3.33;;;15.50;63.10;16.40;100303.00;;;;5031698;28;20217;-54
2023/04/25 05:29:09;;;;;;;6.90;2.97;;;15.50;63.00;16.40;100317.00;;;;5032077;28;20689;-54
2023/04/25 05:31:36;;;;;;;7.47;3.00;;;15.50;63.00;16.40;100307.00;;;;5031823;28;20179;-54
2023/04/25 05:34:02;;;;;;;7.57;3.17;;;15.50;63.10;16.40;100255.00;;;;5031512;28;20190;-54
2023/04/25 05:36:28;;;;;;;4.43;3.13;;;15.50;63.10;16.40;100308.00;;;;5031718;28;20206;-54
2023/04/25 05:38:53;;;;;;;6.23;2.77;;;15.50;63.10;16.40;100313.00;;;;5029829;28;20244;-55
2023/04/25 05:41:20;;;;;;;8.87;3.37;;;15.50;63.00;16.40;100313.00;;;;5032008;28;20164;-55
2023/04/25 05:43:47;;;;;;;4.90;3.30;;;15.50;63.00;16.30;100321.00;;;;5030516;28;20175;-54
2023/04/25 05:46:13;;;;;;;7.20;2.97;;;15.50;63.00;16.30;100318.00;;;;5031272;28;20166;-54
2023/04/25 05:48:39;;;;;;;8.27;3.23;;;15.50;63.00;16.30;100313.00;;;;5031334;28;20203;-55
2023/04/25 05:51:05;;;;;;;5.50;2.87;;;15.50;63.10;16.30;100323.00;;;;5031338;28;20537;-55
2023/04/25 05:53:30;;;;;;;4.83;2.67;;;15.50;63.00;16.30;100323.00;;;;5030770;28;20235;-55
2023/04/25 05:55:56;;;;;;;7.07;3.07;;;15.40;62.90;16.30;100320.00;;;;5031527;28;20216;-54
2023/04/25 05:58:22;;;;;;;3.53;2.40;;;15.40;62.90;16.30;100324.00;;;;5031628;28;20194;-55
2023/04/25 06:00:47;;;;;;;8.13;3.00;;;15.40;62.90;16.30;100323.00;;;;5038583;28;20203;-55
2023/04/25 06:03:16;;;;;;;5.23;2.60;;;15.50;63.10;16.30;100342.00;;;;5038758;28;20186;-54
2023/04/25 06:05:42;;;;;;;4.50;3.10;;;15.40;62.90;16.30;100338.00;;;;5035145;28;20175;-55
2023/04/25 06:08:09;;;;;;;5.57;2.90;;;15.40;62.90;16.30;100361.00;;;;5025956;28;20218;-55
2023/04/25 06:10:36;;;;;;;4.40;2.40;;;15.40;62.90;16.30;100354.00;;;;5028691;28;20175;-55
2023/04/25 06:13:02;;;;;;;6.37;3.00;;;15.40;62.90;16.30;100340.00;;;;5031445;28;20614;-55
2023/04/25 06:15:27;;;;;;;3.87;2.43;;;15.40;62.90;16.30;100352.00;;;;5030173;28;20221;-55
2023/04/25 06:17:53;;;;;;;5.23;3.00;;;15.40;62.90;16.30;100345.00;;;;5031178;28;20845;-54
2023/04/25 06:20:22;;;;;;;5.70;3.00;;;15.40;62.90;16.30;100349.00;;;;5040276;28;20187;-55
2023/04/25 06:22:49;;;;;;;3.90;2.70;;;15.40;62.90;16.30;100338.00;;;;5036294;28;20705;-55
2023/04/25 06:25:15;;;;;;;5.27;3.23;;;15.40;63.00;16.30;100356.00;;;;5032279;28;20186;-55
2023/04/25 06:27:41;;;;;;;5.57;2.83;;;15.40;62.90;16.20;100350.00;;;;5032501;28;20234;-54
2023/04/25 06:30:07;;;;;;;4.57;2.80;;;15.40;62.90;16.20;100344.00;;;;5032747;28;20175;-54
2023/04/25 06:32:34;;;;;;;3.43;2.53;;;15.40;62.90;16.20;100354.00;;;;5033448;28;20207;-54
2023/04/25 06:35:00;;;;;;;6.17;2.90;;;15.30;62.80;16.20;100353.00;;;;5047019;28;20175;-54
2023/04/25 06:37:26;;;;;;;5.50;2.70;;;15.40;63.00;16.20;100356.00;;;;5031985;28;20206;-56
2023/04/25 06:39:51;;;;;;;5.47;2.97;;;15.30;62.80;16.20;100347.00;;;;5030853;28;20221;-54
2023/04/25 06:42:17;;;;;;;3.27;2.43;;;15.30;62.90;16.20;100361.00;;;;5030149;28;20266;-55
2023/04/25 06:44:43;;;;;;;3.47;2.50;;;15.30;62.80;16.20;100366.00;;;;5030211;28;20565;-55
2023/04/25 06:47:09;;;;;;;4.10;2.47;;;15.30;63.00;15.90;100358.00;;;;5030225;28;20202;-55
2023/04/25 06:49:34;;;;;;;4.13;2.87;;;15.30;62.90;16.20;100353.00;;;;5029784;28;20617;-54
2023/04/25 06:52:00;;;;;;;4.93;2.70;;;15.30;62.90;16.20;100357.00;;;;5030552;28;20175;-54
2023/04/25 06:54:28;;;;;;;3.83;2.40;;;15.30;62.90;16.20;100361.00;;;;5030392;28;20214;-53
2023/04/25 06:56:54;;;;;;;3.67;2.70;;;15.30;62.90;16.20;100369.00;;;;5030179;28;20252;-54
2023/04/25 06:59:20;;;;;;;4.13;2.40;;;15.30;63.20;16.20;100367.00;;;;5030358;28;20194;-55
2023/04/25 07:01:45;;;;;;;5.43;2.50;;;15.30;63.10;16.20;100365.00;;;;5030455;28;20183;-55
2023/04/25 07:04:11;;;;;;;4.83;2.80;;;15.30;63.10;16.20;100375.00;;;;5028232;28;20559;-55
2023/04/25 07:06:42;;;;;;;5.07;2.90;;;15.30;63.20;16.20;100376.00;;;;5029736;28;20594;-55
2023/04/25 07:09:11;;;;;;;5.20;2.57;;;15.30;63.30;16.20;100381.00;;;;5030046;28;20207;-55
2023/04/25 07:11:36;;;;;;;3.07;2.60;;;15.30;63.20;16.20;100382.00;;;;5030495;28;20183;-54
2023/04/25 07:14:02;;;;;;;5.77;2.73;;;15.30;63.60;16.20;100388.00;;;;5029719;28;20175;-55
2023/04/25 07:16:28;;;;;;;7.13;3.00;;;15.30;64.40;16.20;100392.00;;;;5027462;28;20194;-54
2023/04/25 07:18:54;;;;;;;6.30;2.90;;;15.30;64.40;16.20;100392.00;;;;5030142;28;20252;-54
2023/04/25 07:21:20;;;;;;;6.37;2.73;;;15.30;64.40;16.20;100409.00;;;;5030245;28;20183;-54
2023/04/25 07:23:46;;;;;;;6.00;2.80;;;15.30;64.40;16.20;100396.00;;;;5029357;28;20193;-54
2023/04/25 07:26:11;;;;;;;4.20;2.60;;;15.40;64.50;16.30;100408.00;;;;5028464;28;20209;-54
2023/04/25 07:28:37;;;;;;;5.07;2.70;;;15.50;64.60;16.30;100410.00;;;;5020454;28;20705;-54
2023/04/25 07:31:03;;;;;;;5.83;2.70;;;15.50;64.40;16.40;100403.00;;;;5029342;28;20181;-55
2023/04/25 07:33:29;;;;;;;5.37;2.90;;;15.70;64.30;16.40;100398.00;;;;5027908;28;20265;-54
2023/04/25 07:35:55;;;;;;;3.23;2.63;;;15.80;64.10;16.50;100400.00;;;;5027768;28;20254;-56
2023/04/25 07:38:21;;;;;;;3.73;2.43;;;15.90;64.00;16.60;100403.00;;;;5028010;28;20277;-54
2023/04/25 07:40:48;;;;;;;4.27;2.50;;;16.00;63.90;16.70;100325.00;;;;5027509;28;20615;-54
2023/04/25 07:43:16;;;;;;;4.67;2.53;;;16.20;63.80;16.80;100404.00;;;;5029193;28;20182;-54
2023/04/25 07:45:45;;;;;;;4.63;2.80;;;16.20;63.50;16.90;100405.00;;;;5028251;28;20207;-54
2023/04/25 07:48:11;;;;;;;4.03;2.47;;;16.40;63.50;16.90;100416.00;;;;5028769;28;20205;-54
2023/04/25 07:50:37;;;;;;;3.90;2.63;;;16.50;63.30;17.00;100411.00;;;;5025019;28;20642;-54
2023/04/25 07:53:03;;;;;;;2.70;2.40;;;16.60;63.10;17.10;100410.00;;;;5025715;28;20217;-56
2023/04/25 07:55:28;;;;;;;4.77;2.70;;;16.80;63.20;17.20;100421.00;;;;5029346;28;20345;-56
2023/04/25 07:57:54;;;;;;;5.17;2.67;;;16.80;63.10;17.30;100411.00;;;;5026282;28;20203;-56
2023/04/25 08:00:20;;;;;;;4.67;2.30;;;16.90;63.10;17.30;100415.00;;;;5024338;28;20186;-54
2023/04/25 08:02:46;;;;;;;4.27;2.60;;;16.90;63.10;17.40;100409.00;;;;5029014;28;20761;-55
2023/04/25 08:05:14;;;;;;;3.00;2.23;;;17.00;63.10;17.50;100412.00;;;;5027699;28;20183;-54
2023/04/25 08:07:41;;;;;;;4.03;2.40;;;17.00;63.30;17.50;100433.00;;;;5029142;28;20217;-55
2023/04/25 08:10:07;;;;;;;4.73;2.70;;;17.00;63.20;17.60;100426.00;;;;5029321;28;20264;-55
2023/04/25 08:12:33;;;;;;;2.50;2.17;;;17.00;63.20;17.60;100439.00;;;;5044360;28;20214;-54
2023/04/25 08:14:58;;;;;;;4.67;2.50;;;17.00;63.40;17.60;100443.00;;;;5029132;28;20195;-55
2023/04/25 08:17:24;;;;;;;3.83;2.50;;;17.10;63.40;17.60;100443.00;;;;5029616;28;20183;-54
2023/04/25 08:19:50;;;;;;;3.23;2.10;;;17.00;63.50;17.70;100462.00;;;;5036762;28;20692;-56
2023/04/25 08:22:16;;;;;;;3.27;2.50;;;17.10;63.60;17.70;100450.00;;;;5037551;28;20258;-55
2023/04/25 08:24:42;;;;;;;3.03;2.40;;;17.10;63.70;17.70;100463.00;;;;5031136;28;20187;-55
2023/04/25 08:27:07;;;;;;;3.23;2.10;;;17.00;63.50;17.70;100461.00;;;;5030837;28;20219;-54
2023/04/25 08:29:34;;;;;;;7.43;2.60;;;17.00;63.50;17.70;100475.00;;;;5030654;28;20659;-55
2023/04/25 08:32:00;;;;;;;5.23;2.37;;;17.00;63.50;17.80;100471.00;;;;5027382;28;20666;-55
2023/04/25 08:34:26;;;;;;;5.63;2.60;;;17.00;63.70;17.80;100468.00;;;;5032863;28;20180;-53
2023/04/25 08:36:52;;;;;;;8.67;2.60;;;17.00;63.70;17.80;100466.00;;;;5025835;28;20259;-54
2023/04/25 08:39:18;;;;;;;5.07;2.30;;;17.00;63.70;17.80;100480.00;;;;5027070;28;20212;-54
2023/04/25 08:41:44;;;;;;;6.43;2.40;;;17.00;63.80;17.80;100492.00;;;;5029345;28;20187;-55
2023/04/25 08:44:13;;;;;;;4.30;2.17;;;17.00;63.80;17.80;100482.00;;;;5027764;28;20188;-55
2023/04/25 08:46:42;;;;;;;3.70;2.40;;;17.00;63.80;17.80;100484.00;;;;5029208;28;20516;-55
2023/04/25 08:49:08;;;;;;;10.07;2.60;;;17.00;63.90;17.80;100491.00;;;;5028843;28;20232;-55
2023/04/25 08:51:34;;;;;;;8.63;2.50;;;17.00;64.20;17.80;100490.00;;;;5022060;28;20186;-57
2023/04/25 08:54:13;;;;;;;4.27;2.43;;;17.00;64.20;17.80;100500.00;;;;5027847;28;20174;-55
2023/04/25 08:56:45;;;;;;;8.10;2.80;;;17.00;64.20;17.80;100491.00;;;;5028407;28;20191;-56
2023/04/25 08:59:12;;;;;;;4.77;2.43;;;17.00;64.50;17.80;100492.00;;;;5027772;28;20760;-56
2023/04/25 09:01:37;;;;;;;6.07;2.53;;;17.00;64.70;17.80;100500.00;;;;5027514;28;20617;-56
2023/04/25 09:04:03;;;;;;;6.77;2.60;;;17.00;64.60;17.80;100507.00;;;;5028745;28;20263;-56
2023/04/25 09:06:30;;;;;;;9.13;2.50;;;17.00;64.60;17.80;100505.00;;;;5031229;28;20265;-54
2023/04/25 09:09:05;;;;;;;10.50;2.47;;;17.10;65.50;17.80;100511.00;;;;5030384;28;20203;-56
2023/04/25 09:11:31;;;;;;;4.23;2.60;;;17.00;65.00;17.80;100514.00;;;;5033665;28;20252;-55
2023/04/25 09:14:30;;;;;;;7.97;2.50;;;17.00;65.10;17.80;100518.00;;;;5030708;28;20180;-54
2023/04/25 09:16:55;;;;;;;7.00;2.43;;;17.00;65.20;17.80;100533.00;;;;5031065;28;20190;-54
2023/04/25 09:19:31;;;;;;;9.57;2.40;;;17.00;65.60;17.80;100526.00;;;;5032174;28;20608;-54
2023/04/25 09:21:59;;;;;;;5.93;2.77;;;17.00;65.20;17.80;100527.00;;;;5028741;28;20172;-55
2023/04/25 09:24:44;;;;;;;6.60;2.60;;;16.90;65.10;17.80;100529.00;;;;5030578;28;20263;-54
2023/04/25 09:27:11;;;;;;;7.87;2.70;;;16.90;65.50;17.90;100536.00;;;;5030708;28;20213;-54
2023/04/25 09:29:41;;;;;;;5.37;2.43;;;17.00;66.20;17.90;100538.00;;;;5031267;28;20548;-54
2023/04/25 09:32:20;;;;;;;6.87;2.93;;;17.00;66.20;17.90;100528.00;;;;5032515;28;20233;-57
2023/04/25 09:34:49;;;;;;;6.93;2.80;;;17.00;66.30;17.90;100536.00;;;;5032002;28;20611;-54
2023/04/25 09:37:22;;;;;;;8.17;2.83;;;17.00;66.70;17.90;100544.00;;;;5030620;28;20173;-54
2023/04/25 09:39:50;;;;;;;5.93;2.90;;;17.00;66.90;17.90;100540.00;;;;5030034;28;20184;-54
2023/04/25 09:42:16;;;;;;;7.83;3.40;;;17.00;66.80;17.90;100543.00;;;;5030128;28;20659;-53
2023/04/25 09:44:44;;;;;;;8.00;3.30;;;17.00;67.10;17.90;100542.00;;;;5030460;28;20213;-55
2023/04/25 09:47:15;;;;;;;9.73;3.90;;;17.00;67.10;18.00;100543.00;;;;5030515;28;20177;-55
2023/04/25 09:49:42;;;;;;;11.00;4.00;;;17.10;67.60;18.00;100541.00;;;;5030759;28;20193;-53
2023/04/25 09:52:07;;;;;;;11.30;4.23;;;17.20;68.10;18.00;100542.00;;;;5030842;28;20189;-54
2023/04/25 09:54:33;;;;;;;9.10;4.10;;;17.20;67.90;18.00;100542.00;;;;5031052;28;20548;-54
2023/04/25 09:57:12;;;;;;;7.83;4.20;;;17.20;67.80;18.00;100552.00;;;;5031485;28;20680;-55
2023/04/25 09:59:51;;;;;;;8.43;3.83;;;17.20;68.80;18.10;100554.00;;;;5029556;28;20288;-55
2023/04/25 10:02:21;;;;;;;9.37;3.80;;;17.20;67.90;18.10;100558.00;;;;5026450;28;20682;-55
2023/04/25 10:04:51;;;;;;;7.67;3.80;;;17.20;67.80;18.10;100560.00;;;;5032770;28;20326;-56
2023/04/25 10:07:17;;;;;;;9.57;3.40;;;17.20;68.10;18.10;100550.00;;;;5033867;28;20200;-56
2023/04/25 10:09:42;;;;;;;5.83;3.43;;;17.30;67.20;18.10;100563.00;;;;5027642;28;20547;-53
2023/04/25 10:12:08;;;;;;;7.43;3.30;;;17.20;67.00;18.10;100567.00;;;;5032078;28;20183;-54
2023/04/25 10:14:34;;;;;;;7.10;3.70;;;17.30;66.70;18.20;100576.00;;;;5026259;28;20550;-55
2023/04/25 10:17:01;;;;;;;6.00;3.37;;;17.30;66.50;18.10;100578.00;;;;5025917;28;20180;-55
2023/04/25 10:19:27;;;;;;;9.03;3.60;;;17.30;66.50;18.20;100579.00;;;;5036345;28;20216;-54
2023/04/25 10:22:02;;;;;;;6.53;3.20;;;17.30;66.20;18.10;100581.00;;;;5047703;28;20214;-54
2023/04/25 10:24:27;;;;;;;8.40;3.27;;;17.30;65.90;18.10;100589.00;;;;5027965;28;20175;-54
2023/04/25 10:26:53;;;;;;;6.77;3.30;;;17.30;65.50;18.10;100581.00;;;;5030465;28;20186;-55
2023/04/25 10:29:23;;;;;;;8.17;3.27;;;17.30;65.40;18.10;100582.00;;;;5032072;28;20217;-54
2023/04/25 10:31:49;;;;;;;6.10;3.30;;;17.30;65.20;18.10;100587.00;;;;5030952;28;20202;-54
2023/04/25 10:34:19;;;;;;;11.07;3.40;;;17.30;64.70;18.10;100583.00;;;;5041219;28;20176;-54
2023/04/25 10:36:52;;;;;;;9.70;3.40;;;17.30;65.40;18.10;100582.00;;;;5031618;28;20173;-55
2023/04/25 10:39:25;;;;;;;9.67;3.60;;;17.30;66.50;18.10;100586.00;;;;5018786;28;20282;-55
2023/04/25 10:41:56;;;;;;;8.57;3.80;;;17.30;67.20;18.20;100600.00;;;;5029839;28;20681;-53
2023/04/25 10:44:22;;;;;;;6.50;3.40;;;17.30;67.60;18.20;100593.00;;;;5024468;28;20176;-57
2023/04/25 10:46:48;;;;;;;8.23;4.07;;;17.30;67.50;18.20;100592.00;;;;5029891;28;20189;-54